Weather at Chino Airport

Public forecast

Using degrees Fahrenheit for public forecast. Weather courtesy of forecast.io.

Current aviation weather report (METAR) for Chino Airport

Report is more than 6 hours old.

2022/11/14 14:53 (retrieved 2 years ago)

KCNO 141453Z 00000KT 10SM FEW100 06/03 A3013 RMK AO2 SLP202 T00560028 55001

Closest aviation forecast (TAF) to Chino Airport

Forecast is more than 12 hours old.

Closest forecast is Ontario International Airport, 5.2 nm (9.6 km) NNE.

2023/02/22 18:42 (retrieved 1 year ago)

TAF KONT 221739Z 2218/2324 25015G25KT P6SM FEW035 SCT070 FM230400 24012G20KT P6SM SCT025 BKN035 FM230900 26009KT P6SM VCSH SCT025 BKN035 TEMPO 2312/2316 6SM -SHRA BR BKN025